createdAt,value
2022-11-14T00:00:18.307Z,42.40
2022-11-14T00:00:39.360Z,48.40
2022-11-14T00:01:00.424Z,50.10
2022-11-14T00:01:21.485Z,49.90
2022-11-14T00:01:42.529Z,52.30
2022-11-14T00:02:03.588Z,48.20
2022-11-14T00:02:24.680Z,47.10
2022-11-14T00:02:45.839Z,48.40
2022-11-14T00:03:06.942Z,45.30
2022-11-14T00:03:27.980Z,46.80
2022-11-14T00:03:49.055Z,45.30
2022-11-14T00:04:10.114Z,43.20
2022-11-14T00:04:31.166Z,42.90
2022-11-14T00:04:52.245Z,38.20
2022-11-14T00:05:13.282Z,35.50
2022-11-14T00:05:34.333Z,32.90
2022-11-14T00:05:55.414Z,31.20
2022-11-14T00:06:16.474Z,27.90
2022-11-14T00:06:37.608Z,25.70
2022-11-14T00:06:58.689Z,28.20
2022-11-14T00:07:19.801Z,29.30
2022-11-14T00:07:40.846Z,28.40
2022-11-14T00:08:01.876Z,29.40
2022-11-14T00:08:22.978Z,31.00
2022-11-14T00:08:43.992Z,30.70
2022-11-14T00:09:05.046Z,30.70
2022-11-14T00:09:26.096Z,30.60
2022-11-14T00:09:47.154Z,29.60
2022-11-14T00:10:08.229Z,30.50
2022-11-14T00:10:29.291Z,27.90
2022-11-14T00:10:50.339Z,27.80
2022-11-14T00:11:11.505Z,27.30
2022-11-14T00:11:32.499Z,29.80
2022-11-14T00:11:53.548Z,26.10
2022-11-14T00:12:14.623Z,23.90
2022-11-14T00:12:35.666Z,23.60
2022-11-14T00:12:56.732Z,23.80
2022-11-14T00:13:17.777Z,21.90
2022-11-14T00:13:39.038Z,20.70
2022-11-14T00:14:00.087Z,20.20
2022-11-14T00:14:21.141Z,20.80
2022-11-14T00:14:42.211Z,20.20
2022-11-14T00:15:03.251Z,18.00
2022-11-14T00:15:24.383Z,18.70
2022-11-14T00:15:45.412Z,23.30
2022-11-14T00:16:06.459Z,22.50
2022-11-14T00:16:27.545Z,22.80
2022-11-14T00:16:48.593Z,23.10
2022-11-14T00:17:09.651Z,23.20
2022-11-14T00:17:30.707Z,20.60
2022-11-14T00:17:51.765Z,21.20
2022-11-14T00:18:12.814Z,21.00
2022-11-14T00:18:33.860Z,21.50
2022-11-14T00:18:55.047Z,20.50
2022-11-14T00:19:16.116Z,19.80
2022-11-14T00:19:37.166Z,19.10
2022-11-14T00:19:58.226Z,17.70
2022-11-14T00:20:19.292Z,18.30
2022-11-14T00:20:40.337Z,18.70
2022-11-14T00:21:01.417Z,19.10
2022-11-14T00:21:22.515Z,18.70
2022-11-14T00:21:43.528Z,17.70
2022-11-14T00:22:04.585Z,16.80
2022-11-14T00:22:25.645Z,18.40
2022-11-14T00:22:46.734Z,17.90
2022-11-14T00:23:07.754Z,18.20
2022-11-14T00:23:28.925Z,18.80
2022-11-14T00:23:49.992Z,18.30
2022-11-14T00:24:11.031Z,16.80
2022-11-14T00:24:32.093Z,17.60
2022-11-14T00:24:53.136Z,16.30
2022-11-14T00:25:14.198Z,17.40
2022-11-14T00:25:35.238Z,17.00
2022-11-14T00:25:56.296Z,17.90
2022-11-14T00:26:17.480Z,16.00
2022-11-14T00:26:38.502Z,17.30
2022-11-14T00:26:59.530Z,17.10
2022-11-14T00:27:20.586Z,17.10
2022-11-14T00:27:41.640Z,16.10
2022-11-14T00:28:02.698Z,18.00
2022-11-14T00:28:23.843Z,16.90
2022-11-14T00:28:44.995Z,16.50
2022-11-14T00:29:06.122Z,17.00
2022-11-14T00:29:27.146Z,19.20
2022-11-14T00:29:48.249Z,18.40
2022-11-14T00:30:09.271Z,17.60
2022-11-14T00:30:30.317Z,16.70
2022-11-14T00:30:51.376Z,16.60
2022-11-14T00:31:12.438Z,17.00
2022-11-14T00:31:33.481Z,16.10
2022-11-14T00:31:54.534Z,19.50
2022-11-14T00:32:15.588Z,20.20
2022-11-14T00:32:36.639Z,20.30
2022-11-14T00:32:57.690Z,17.30
2022-11-14T00:33:20.563Z,16.40
2022-11-14T00:33:41.859Z,16.10
2022-11-14T00:34:03.060Z,16.50
2022-11-14T00:34:24.082Z,16.00
2022-11-14T00:34:45.133Z,18.20
2022-11-14T00:35:06.181Z,16.90
2022-11-14T00:35:27.264Z,16.70
2022-11-14T00:35:48.310Z,15.70
2022-11-14T00:36:09.364Z,15.90
2022-11-14T00:36:30.457Z,16.50
2022-11-14T00:36:51.530Z,15.20
2022-11-14T00:37:12.582Z,15.50
2022-11-14T00:37:33.677Z,16.60
2022-11-14T00:37:54.689Z,17.50
2022-11-14T00:38:15.761Z,17.20
2022-11-14T00:38:36.824Z,16.90
2022-11-14T00:38:57.909Z,15.30
2022-11-14T00:39:19.091Z,16.50
2022-11-14T00:39:40.145Z,17.80
2022-11-14T00:40:01.190Z,16.90
2022-11-14T00:40:22.253Z,17.60
2022-11-14T00:40:43.321Z,15.90
2022-11-14T00:41:04.348Z,19.40
2022-11-14T00:41:25.526Z,19.80
2022-11-14T00:41:46.536Z,20.30
2022-11-14T00:42:07.572Z,19.80
2022-11-14T00:42:28.627Z,21.70
2022-11-14T00:42:49.702Z,21.90
2022-11-14T00:43:10.890Z,22.30
2022-11-14T00:43:31.904Z,22.50
2022-11-14T00:43:52.956Z,20.80
2022-11-14T00:44:14.007Z,20.70
2022-11-14T00:44:35.357Z,20.20
2022-11-14T00:44:56.416Z,19.00
2022-11-14T00:45:17.457Z,18.80
2022-11-14T00:45:38.508Z,19.20
2022-11-14T00:45:59.559Z,20.40
2022-11-14T00:46:20.609Z,21.50
2022-11-14T00:46:41.692Z,23.30
2022-11-14T00:47:02.736Z,30.00
2022-11-14T00:47:23.773Z,32.40
2022-11-14T00:47:44.929Z,33.90
2022-11-14T00:48:05.962Z,31.70
2022-11-14T00:48:27.315Z,31.70
2022-11-14T00:48:48.621Z,29.80
2022-11-14T00:49:09.696Z,28.20
2022-11-14T00:49:30.740Z,29.20
2022-11-14T00:49:51.871Z,26.60
2022-11-14T00:50:12.940Z,24.60
2022-11-14T00:50:33.976Z,23.60
2022-11-14T00:50:55.102Z,22.40
2022-11-14T00:51:16.125Z,25.40
2022-11-14T00:51:37.183Z,24.90
2022-11-14T00:51:58.331Z,26.40
2022-11-14T00:52:19.361Z,26.40
2022-11-14T00:52:40.416Z,25.00
2022-11-14T00:53:01.467Z,23.40
2022-11-14T00:53:22.510Z,23.90
2022-11-14T00:53:43.595Z,23.80
2022-11-14T00:54:04.668Z,25.90
2022-11-14T00:54:25.721Z,24.60
2022-11-14T00:54:46.802Z,26.50
2022-11-14T00:55:08.034Z,27.20
2022-11-14T00:55:29.953Z,26.50
2022-11-14T00:55:51.009Z,28.60
2022-11-14T00:56:12.081Z,28.60
2022-11-14T00:56:33.231Z,28.00
2022-11-14T00:56:54.238Z,28.50
2022-11-14T00:57:15.281Z,28.20
2022-11-14T00:57:36.339Z,27.70
2022-11-14T00:57:57.393Z,27.30
2022-11-14T00:58:18.441Z,25.90
2022-11-14T00:58:39.499Z,24.60
2022-11-14T00:59:00.553Z,23.80
2022-11-14T00:59:21.640Z,26.50
2022-11-14T00:59:42.738Z,25.50
2022-11-14T01:00:03.777Z,27.60
2022-11-14T01:00:24.875Z,29.40
2022-11-14T01:00:45.984Z,28.30
2022-11-14T01:01:07.070Z,28.60
2022-11-14T01:01:28.175Z,31.60
2022-11-14T01:01:49.217Z,30.00
2022-11-14T01:02:10.257Z,31.60
2022-11-14T01:02:31.310Z,31.20
2022-11-14T01:02:52.357Z,28.70
2022-11-14T01:03:13.438Z,29.90
2022-11-14T01:03:34.457Z,28.90
2022-11-14T01:03:55.655Z,28.70
2022-11-14T01:04:16.657Z,28.80
2022-11-14T01:04:37.711Z,29.70
2022-11-14T01:04:58.899Z,27.90
2022-11-14T01:05:19.926Z,30.00
2022-11-14T01:05:40.981Z,27.30
2022-11-14T01:06:02.038Z,29.90
2022-11-14T01:06:23.090Z,30.10
2022-11-14T01:06:44.154Z,28.30
2022-11-14T01:07:05.317Z,29.90
2022-11-14T01:07:26.340Z,28.90
2022-11-14T01:07:47.377Z,27.50
2022-11-14T01:08:08.436Z,25.50
2022-11-14T01:08:29.805Z,24.90
2022-11-14T01:08:51.129Z,24.20
2022-11-14T01:09:12.251Z,24.80
2022-11-14T01:09:33.370Z,25.10
2022-11-14T01:09:54.427Z,25.50
2022-11-14T01:10:15.483Z,25.40
2022-11-14T01:10:36.687Z,26.20
2022-11-14T01:10:57.707Z,25.70
2022-11-14T01:11:18.786Z,27.00
2022-11-14T01:11:39.931Z,26.90
2022-11-14T01:12:01.006Z,26.80
2022-11-14T01:12:22.058Z,26.00
2022-11-14T01:12:43.127Z,27.20
2022-11-14T01:13:04.196Z,27.80
2022-11-14T01:13:25.245Z,25.30
2022-11-14T01:13:46.298Z,25.00
2022-11-14T01:14:07.333Z,24.20
2022-11-14T01:14:28.410Z,24.70
2022-11-14T01:14:49.464Z,24.30
2022-11-14T01:15:10.511Z,22.40
2022-11-14T01:15:31.570Z,23.20
2022-11-14T01:15:52.669Z,22.10
2022-11-14T01:16:13.714Z,23.30
2022-11-14T01:16:34.768Z,24.10
2022-11-14T01:16:55.842Z,22.10
2022-11-14T01:17:16.881Z,22.10
2022-11-14T01:17:37.924Z,22.00
2022-11-14T01:17:58.976Z,22.60
2022-11-14T01:18:20.027Z,22.60
2022-11-14T01:18:41.081Z,20.50
2022-11-14T01:19:02.152Z,21.80
2022-11-14T01:19:23.195Z,21.10
2022-11-14T01:19:44.243Z,22.60
2022-11-14T01:20:05.371Z,21.00
2022-11-14T01:20:26.423Z,20.00
2022-11-14T01:20:47.460Z,18.70
2022-11-14T01:21:08.521Z,18.90
2022-11-14T01:21:29.601Z,19.30
2022-11-14T01:21:50.680Z,20.20
2022-11-14T01:22:11.706Z,19.40
2022-11-14T01:22:32.763Z,19.80
2022-11-14T01:22:53.852Z,19.80
2022-11-14T01:23:14.882Z,19.40
2022-11-14T01:23:35.930Z,18.90
2022-11-14T01:23:56.977Z,18.30
2022-11-14T01:24:18.058Z,18.80
2022-11-14T01:24:39.101Z,17.40
2022-11-14T01:25:00.168Z,19.00
2022-11-14T01:25:21.240Z,19.30
2022-11-14T01:25:42.332Z,20.30
2022-11-14T01:26:03.379Z,18.30
2022-11-14T01:26:24.599Z,18.50
2022-11-14T01:26:45.749Z,16.70
2022-11-14T01:27:06.794Z,15.50
2022-11-14T01:27:27.828Z,16.10
2022-11-14T01:27:48.884Z,16.70
2022-11-14T01:28:09.957Z,16.70
2022-11-14T01:28:31.400Z,15.50
2022-11-14T01:28:52.615Z,16.10
2022-11-14T01:29:13.653Z,15.50
2022-11-14T01:29:34.703Z,16.00
2022-11-14T01:29:55.820Z,14.80
2022-11-14T01:30:16.889Z,16.80
2022-11-14T01:30:37.927Z,16.30
2022-11-14T01:30:58.970Z,15.40
2022-11-14T01:31:20.030Z,15.00
2022-11-14T01:31:41.132Z,15.60
2022-11-14T01:32:02.171Z,14.20
2022-11-14T01:32:23.249Z,13.80
2022-11-14T01:32:44.302Z,15.00
2022-11-14T01:33:05.372Z,15.50
2022-11-14T01:33:26.396Z,15.60
2022-11-14T01:33:47.449Z,18.40
2022-11-14T01:34:08.517Z,16.80
2022-11-14T01:34:29.605Z,15.10
2022-11-14T01:34:50.694Z,15.20
2022-11-14T01:35:11.720Z,16.40
2022-11-14T01:35:32.803Z,15.70
2022-11-14T01:35:53.839Z,15.70
2022-11-14T01:36:14.888Z,16.30
2022-11-14T01:36:35.953Z,16.00
2022-11-14T01:36:57.130Z,16.70
2022-11-14T01:37:18.187Z,15.70
2022-11-14T01:37:39.268Z,16.20
2022-11-14T01:38:00.326Z,16.60
2022-11-14T01:38:21.372Z,16.10
2022-11-14T01:38:42.422Z,15.30
2022-11-14T01:39:03.488Z,15.30
2022-11-14T01:39:24.557Z,15.30
2022-11-14T01:39:45.612Z,15.60
2022-11-14T01:40:06.655Z,15.50
2022-11-14T01:40:27.715Z,15.60
2022-11-14T01:40:48.794Z,15.10
2022-11-14T01:41:09.832Z,15.20
2022-11-14T01:41:30.950Z,15.70
2022-11-14T01:41:52.093Z,14.80
2022-11-14T01:42:13.198Z,14.90
2022-11-14T01:42:34.243Z,15.60
2022-11-14T01:42:55.304Z,16.30
2022-11-14T01:43:16.353Z,16.10
2022-11-14T01:43:37.459Z,14.50
2022-11-14T01:43:58.498Z,14.90
2022-11-14T01:44:19.528Z,14.80
2022-11-14T01:44:40.611Z,15.00
2022-11-14T01:45:01.724Z,14.40
2022-11-14T01:45:22.768Z,15.00
2022-11-14T01:45:43.817Z,14.80
2022-11-14T01:46:04.847Z,15.80
2022-11-14T01:46:25.920Z,14.90
2022-11-14T01:46:46.962Z,16.10
2022-11-14T01:47:08.121Z,15.20
2022-11-14T01:47:29.142Z,14.40
2022-11-14T01:47:50.227Z,14.80
2022-11-14T01:48:11.280Z,15.10
2022-11-14T01:48:32.486Z,15.30
2022-11-14T01:48:53.627Z,16.50
2022-11-14T01:49:14.672Z,16.40
2022-11-14T01:49:35.738Z,14.60
2022-11-14T01:49:56.816Z,15.30
2022-11-14T01:50:17.860Z,15.60
2022-11-14T01:50:38.950Z,14.80
2022-11-14T01:51:00.020Z,14.90
2022-11-14T01:51:21.068Z,16.10
2022-11-14T01:51:42.242Z,14.10
2022-11-14T01:52:03.280Z,14.60
2022-11-14T01:52:24.359Z,15.30
2022-11-14T01:52:45.401Z,17.00
2022-11-14T01:53:06.444Z,17.90
2022-11-14T01:53:27.530Z,15.40
2022-11-14T01:53:48.612Z,15.20
2022-11-14T01:54:09.671Z,14.20
2022-11-14T01:54:30.715Z,14.20
2022-11-14T01:54:51.763Z,15.40
2022-11-14T01:55:12.822Z,16.40
2022-11-14T01:55:33.882Z,14.70
2022-11-14T01:55:54.940Z,16.10
2022-11-14T01:56:15.978Z,16.60
2022-11-14T01:56:37.036Z,15.80
2022-11-14T01:56:58.325Z,16.50
2022-11-14T01:57:19.345Z,14.50
2022-11-14T01:57:40.378Z,16.50
2022-11-14T01:58:01.437Z,17.70
2022-11-14T01:58:22.498Z,18.00
2022-11-14T01:58:43.586Z,15.80
2022-11-14T01:59:04.643Z,14.70
2022-11-14T01:59:25.821Z,13.80
2022-11-14T01:59:46.831Z,15.20
2022-11-14T02:00:07.879Z,15.50
2022-11-14T02:00:28.939Z,15.10
2022-11-14T02:00:49.982Z,15.50
2022-11-14T02:01:11.210Z,14.30
2022-11-14T02:01:32.397Z,15.60
2022-11-14T02:01:53.533Z,14.20
2022-11-14T02:02:14.572Z,15.60
2022-11-14T02:02:35.633Z,17.00
2022-11-14T02:02:56.716Z,16.10
2022-11-14T02:03:17.738Z,15.20
2022-11-14T02:03:38.808Z,15.40
2022-11-14T02:03:59.846Z,16.30
2022-11-14T02:04:20.901Z,13.50
2022-11-14T02:04:41.957Z,14.60
2022-11-14T02:05:03.038Z,14.20
2022-11-14T02:05:24.079Z,14.60
2022-11-14T02:05:45.131Z,17.30
2022-11-14T02:06:06.185Z,15.20
2022-11-14T02:06:27.253Z,13.90
2022-11-14T02:06:48.321Z,16.00
2022-11-14T02:07:09.385Z,15.50
2022-11-14T02:07:30.574Z,15.10
2022-11-14T02:07:51.629Z,14.80
2022-11-14T02:08:12.714Z,14.80
2022-11-14T02:08:33.794Z,16.00
2022-11-14T02:08:54.834Z,16.00
2022-11-14T02:09:15.884Z,14.80
2022-11-14T02:09:36.957Z,14.60
2022-11-14T02:09:57.983Z,15.10
2022-11-14T02:10:19.041Z,16.60
2022-11-14T02:10:40.100Z,15.90
2022-11-14T02:11:01.141Z,16.70
2022-11-14T02:11:22.190Z,16.20
2022-11-14T02:11:43.240Z,16.10
2022-11-14T02:12:04.403Z,15.10
2022-11-14T02:12:25.415Z,15.70
2022-11-14T02:12:46.469Z,16.30
2022-11-14T02:13:07.563Z,17.60
2022-11-14T02:13:28.603Z,16.60
2022-11-14T02:13:49.647Z,16.00
2022-11-14T02:14:10.705Z,16.10
2022-11-14T02:14:31.751Z,15.60
2022-11-14T02:14:52.803Z,15.80
2022-11-14T02:15:13.854Z,15.50
2022-11-14T02:15:34.909Z,16.40
2022-11-14T02:15:55.964Z,16.80
2022-11-14T02:16:17.057Z,17.30
2022-11-14T02:16:38.078Z,16.30
2022-11-14T02:17:22.702Z,15.50
2022-11-14T02:17:30.869Z,14.10
2022-11-14T02:17:52.224Z,16.80
2022-11-14T02:18:13.278Z,16.90
2022-11-14T02:18:34.314Z,15.50
2022-11-14T02:18:55.372Z,14.40
2022-11-14T02:19:16.444Z,15.90
2022-11-14T02:19:37.481Z,16.00
2022-11-14T02:20:02.257Z,15.20
2022-11-14T02:20:25.507Z,14.70
2022-11-14T02:20:46.578Z,15.70
2022-11-14T02:21:07.627Z,16.20
2022-11-14T02:21:28.668Z,14.90
2022-11-14T02:21:49.744Z,15.80
2022-11-14T02:22:10.840Z,15.00
2022-11-14T02:22:31.905Z,14.60
2022-11-14T02:22:52.945Z,14.90
2022-11-14T02:23:13.989Z,14.90
2022-11-14T02:23:35.035Z,13.60
2022-11-14T02:23:56.099Z,14.60
2022-11-14T02:24:17.167Z,15.40
2022-11-14T02:24:38.233Z,14.90
2022-11-14T02:24:59.288Z,14.50
2022-11-14T02:25:20.334Z,14.70
2022-11-14T02:25:41.383Z,15.30
2022-11-14T02:26:02.475Z,15.40
2022-11-14T02:26:23.560Z,14.50
2022-11-14T02:26:44.589Z,13.90
2022-11-14T02:27:05.647Z,13.80
2022-11-14T02:27:26.952Z,14.30
2022-11-14T02:27:48.027Z,15.60
2022-11-14T02:28:09.035Z,15.80
2022-11-14T02:28:30.424Z,14.60
2022-11-14T02:28:51.497Z,14.10
2022-11-14T02:29:12.562Z,13.80
2022-11-14T02:29:33.706Z,14.60
2022-11-14T02:29:54.719Z,15.80
2022-11-14T02:30:15.827Z,15.00
2022-11-14T02:30:36.853Z,14.70
2022-11-14T02:30:57.899Z,14.60
2022-11-14T02:31:18.948Z,15.30
2022-11-14T02:31:40.007Z,15.90
2022-11-14T02:32:01.041Z,15.10
2022-11-14T02:32:22.115Z,14.60
2022-11-14T02:33:11.197Z,15.30
2022-11-14T02:33:12.078Z,15.30
2022-11-14T02:33:32.788Z,15.40
2022-11-14T02:33:53.841Z,16.80
2022-11-14T02:34:14.897Z,16.40
2022-11-14T02:34:35.953Z,13.90
2022-11-14T02:34:57.015Z,14.80
2022-11-14T02:35:18.095Z,14.10
2022-11-14T02:35:39.142Z,15.80
2022-11-14T02:36:00.192Z,14.30
2022-11-14T02:36:21.273Z,14.70
2022-11-14T02:36:42.309Z,15.50
2022-11-14T02:37:03.374Z,16.20
2022-11-14T02:37:24.444Z,15.30
2022-11-14T02:37:45.522Z,16.90
2022-11-14T02:38:06.580Z,16.60
2022-11-14T02:38:28.038Z,16.50
2022-11-14T02:38:49.335Z,15.50
2022-11-14T02:39:10.348Z,16.10
2022-11-14T02:39:31.391Z,14.10
2022-11-14T02:39:52.481Z,17.10
2022-11-14T02:40:13.506Z,15.20
2022-11-14T02:40:34.571Z,14.70
2022-11-14T02:40:55.606Z,16.30
2022-11-14T02:41:16.651Z,16.20
2022-11-14T02:41:37.710Z,15.50
2022-11-14T02:41:58.794Z,14.50
2022-11-14T02:42:19.829Z,14.10
2022-11-14T02:42:40.985Z,15.50
2022-11-14T02:43:02.013Z,14.60
2022-11-14T02:43:23.087Z,16.00
2022-11-14T02:43:44.136Z,17.60
2022-11-14T02:44:05.214Z,15.20
2022-11-14T02:44:26.256Z,17.50
2022-11-14T02:44:47.311Z,17.20
2022-11-14T02:45:08.382Z,15.60
2022-11-14T02:45:29.428Z,15.80
2022-11-14T02:45:50.479Z,15.30
2022-11-14T02:46:11.559Z,15.90
2022-11-14T02:46:32.581Z,16.50
2022-11-14T02:46:53.635Z,16.40
2022-11-14T02:47:14.697Z,16.10
2022-11-14T02:47:35.760Z,16.10
2022-11-14T02:47:56.806Z,15.70
2022-11-14T02:48:18.097Z,14.90
2022-11-14T02:48:39.161Z,15.10
2022-11-14T02:49:00.225Z,14.80
2022-11-14T02:49:21.270Z,16.70
2022-11-14T02:49:42.321Z,14.40
2022-11-14T02:50:03.379Z,14.80
2022-11-14T02:50:24.446Z,15.00
2022-11-14T02:50:45.535Z,15.60
2022-11-14T02:51:06.598Z,14.90
2022-11-14T02:51:27.672Z,14.10
2022-11-14T02:51:48.713Z,15.00
2022-11-14T02:52:09.754Z,16.40
2022-11-14T02:52:30.803Z,15.80
2022-11-14T02:52:51.884Z,15.20
2022-11-14T02:53:12.924Z,14.60
2022-11-14T02:53:34.084Z,14.20
2022-11-14T02:53:55.123Z,15.20
2022-11-14T02:54:16.185Z,16.70
2022-11-14T02:54:37.228Z,15.30
2022-11-14T02:54:58.284Z,15.00
2022-11-14T02:55:19.330Z,15.90
2022-11-14T02:55:40.381Z,15.40
2022-11-14T02:56:01.430Z,15.10
2022-11-14T02:56:22.510Z,16.60
2022-11-14T02:56:43.565Z,16.60
2022-11-14T02:57:04.626Z,15.90
2022-11-14T02:57:25.714Z,15.00
2022-11-14T02:57:46.904Z,15.30
2022-11-14T02:58:07.905Z,14.70
2022-11-14T02:58:29.311Z,14.70
2022-11-14T02:58:50.669Z,15.20
2022-11-14T02:59:11.697Z,15.40
2022-11-14T02:59:32.882Z,14.90
2022-11-14T02:59:53.973Z,15.00
2022-11-14T03:00:15.502Z,16.20
2022-11-14T03:00:44.007Z,16.00
2022-11-14T03:01:20.129Z,16.30
2022-11-14T03:01:30.591Z,14.80
2022-11-14T03:01:51.679Z,15.80
2022-11-14T03:02:12.721Z,15.40
2022-11-14T03:02:33.763Z,14.70
2022-11-14T03:02:54.887Z,16.40
2022-11-14T03:03:15.915Z,15.40
2022-11-14T03:03:36.950Z,15.70
2022-11-14T03:03:58.007Z,16.10
2022-11-14T03:04:19.085Z,16.00
2022-11-14T03:04:40.136Z,14.90
2022-11-14T03:05:01.211Z,15.10
2022-11-14T03:05:22.279Z,16.20
2022-11-14T03:05:43.303Z,14.60
2022-11-14T03:06:04.358Z,15.30
2022-11-14T03:06:25.408Z,16.50
2022-11-14T03:06:46.457Z,15.60
2022-11-14T03:07:07.604Z,14.90
2022-11-14T03:07:28.737Z,15.50
2022-11-14T03:07:49.814Z,14.60
2022-11-14T03:08:10.844Z,15.70
2022-11-14T03:08:32.210Z,14.80
2022-11-14T03:08:53.394Z,15.70
2022-11-14T03:09:14.450Z,16.00
2022-11-14T03:09:35.556Z,15.70
2022-11-14T03:09:56.571Z,15.70
2022-11-14T03:10:17.788Z,16.50
2022-11-14T03:10:38.863Z,16.70
2022-11-14T03:10:59.890Z,16.10
2022-11-14T03:11:20.977Z,14.80
2022-11-14T03:11:42.024Z,15.60
2022-11-14T03:12:03.174Z,15.70
2022-11-14T03:12:24.188Z,15.80
2022-11-14T03:12:45.221Z,15.40
2022-11-14T03:13:06.399Z,14.50
2022-11-14T03:13:27.403Z,13.40
2022-11-14T03:13:48.439Z,14.40
2022-11-14T03:14:09.488Z,15.10
2022-11-14T03:14:30.537Z,16.70
2022-11-14T03:14:51.636Z,14.60
2022-11-14T03:15:12.659Z,15.50
2022-11-14T03:15:33.730Z,15.40
2022-11-14T03:15:54.778Z,16.00
2022-11-14T03:16:15.839Z,15.90
2022-11-14T03:16:36.862Z,15.40
2022-11-14T03:16:57.937Z,15.10
2022-11-14T03:17:18.995Z,14.30
2022-11-14T03:17:40.041Z,13.90
2022-11-14T03:18:01.102Z,15.80
2022-11-14T03:18:22.170Z,14.30
2022-11-14T03:18:43.217Z,14.90
2022-11-14T03:19:04.261Z,14.80
2022-11-14T03:19:25.313Z,15.70
2022-11-14T03:19:46.391Z,15.90
2022-11-14T03:20:07.431Z,15.10
2022-11-14T03:20:28.482Z,14.70
2022-11-14T03:20:49.552Z,14.40
2022-11-14T03:21:10.614Z,15.60
2022-11-14T03:21:31.651Z,15.80
2022-11-14T03:21:52.726Z,15.70
2022-11-14T03:22:13.755Z,18.30
2022-11-14T03:22:34.817Z,16.70
2022-11-14T03:22:55.864Z,16.50
2022-11-14T03:23:16.914Z,15.10
2022-11-14T03:23:38.014Z,15.30
2022-11-14T03:23:59.088Z,15.60
2022-11-14T03:24:20.147Z,14.80
2022-11-14T03:24:41.195Z,16.10
2022-11-14T03:25:02.279Z,15.10
2022-11-14T03:25:23.316Z,15.10
2022-11-14T03:25:44.375Z,16.70
2022-11-14T03:26:05.424Z,15.40
2022-11-14T03:26:26.473Z,16.00
2022-11-14T03:26:47.540Z,15.80
2022-11-14T03:27:08.910Z,17.90
2022-11-14T03:27:30.075Z,20.80
2022-11-14T03:27:51.533Z,22.30
2022-11-14T03:28:12.654Z,22.20
2022-11-14T03:28:33.679Z,21.20
2022-11-14T03:28:54.738Z,21.90
2022-11-14T03:29:15.791Z,23.10
2022-11-14T03:29:36.960Z,22.70
2022-11-14T03:29:58.010Z,24.10
2022-11-14T03:30:19.065Z,24.00
2022-11-14T03:30:40.137Z,21.20
2022-11-14T03:31:01.177Z,22.20
2022-11-14T03:31:22.276Z,21.40
2022-11-14T03:31:43.341Z,19.00
2022-11-14T03:32:04.381Z,20.20
2022-11-14T03:32:25.441Z,20.60
2022-11-14T03:32:46.503Z,21.20
2022-11-14T03:33:07.533Z,19.80
2022-11-14T03:33:28.593Z,18.50
2022-11-14T03:33:49.641Z,19.40
2022-11-14T03:34:10.732Z,19.20
2022-11-14T03:34:31.750Z,20.90
2022-11-14T03:34:53.148Z,20.20
2022-11-14T03:35:14.221Z,19.30
2022-11-14T03:35:35.254Z,18.80
2022-11-14T03:35:56.292Z,17.50
2022-11-14T03:36:17.345Z,16.50
2022-11-14T03:36:38.410Z,17.90
2022-11-14T03:36:59.451Z,18.50
2022-11-14T03:37:20.490Z,17.60
2022-11-14T03:37:41.556Z,17.20
2022-11-14T03:38:02.616Z,18.10
2022-11-14T03:38:23.643Z,18.80
2022-11-14T03:38:44.687Z,18.80
2022-11-14T03:39:05.758Z,18.30
2022-11-14T03:39:26.802Z,19.80
2022-11-14T03:39:47.848Z,21.20
2022-11-14T03:40:08.942Z,20.40
2022-11-14T03:40:29.971Z,21.00
2022-11-14T03:40:51.022Z,23.80
2022-11-14T03:41:12.069Z,22.00
2022-11-14T03:41:33.136Z,21.90
2022-11-14T03:41:54.213Z,22.20
2022-11-14T03:42:15.245Z,21.90
2022-11-14T03:42:36.294Z,21.20
2022-11-14T03:42:57.337Z,21.10
2022-11-14T03:43:18.521Z,23.50
2022-11-14T03:43:39.531Z,24.00
2022-11-14T03:44:00.579Z,22.70
2022-11-14T03:44:21.628Z,22.00
2022-11-14T03:44:42.696Z,21.40
2022-11-14T03:45:03.731Z,19.90
2022-11-14T03:45:24.801Z,17.60
2022-11-14T03:45:45.847Z,18.50
2022-11-14T03:46:06.897Z,17.80
2022-11-14T03:46:27.949Z,20.00
2022-11-14T03:46:49.083Z,19.10
2022-11-14T03:47:10.134Z,18.20
2022-11-14T03:47:31.201Z,19.70
2022-11-14T03:47:52.256Z,19.60
2022-11-14T03:48:13.319Z,20.20
2022-11-14T03:48:34.364Z,18.80
2022-11-14T03:48:55.397Z,19.80
2022-11-14T03:49:16.462Z,21.40
2022-11-14T03:49:37.498Z,19.80
2022-11-14T03:49:58.540Z,19.00
2022-11-14T03:50:19.602Z,19.00
2022-11-14T03:50:40.674Z,19.40
2022-11-14T03:51:01.741Z,20.30
2022-11-14T03:51:22.777Z,20.00
2022-11-14T03:51:43.869Z,18.70
2022-11-14T03:52:04.898Z,19.20
2022-11-14T03:52:25.951Z,19.40
2022-11-14T03:52:46.994Z,18.10
2022-11-14T03:53:08.061Z,18.90
2022-11-14T03:53:29.107Z,19.10
2022-11-14T03:53:50.163Z,18.80
2022-11-14T03:54:11.255Z,20.00
2022-11-14T03:54:32.293Z,19.40
2022-11-14T03:54:53.328Z,20.30
2022-11-14T03:55:14.374Z,18.00
2022-11-14T03:55:35.421Z,18.40
2022-11-14T03:55:56.475Z,19.20
2022-11-14T03:56:17.528Z,20.00
2022-11-14T03:56:38.585Z,19.80
2022-11-14T03:56:59.677Z,19.80
2022-11-14T03:57:20.715Z,22.20
2022-11-14T03:57:41.766Z,18.80
2022-11-14T03:58:02.856Z,19.70
2022-11-14T03:58:23.979Z,19.70
2022-11-14T03:58:44.979Z,18.90
2022-11-14T03:59:06.034Z,17.30
2022-11-14T03:59:27.082Z,20.50
2022-11-14T03:59:48.149Z,20.90
2022-11-14T04:00:09.232Z,18.50
2022-11-14T04:00:30.316Z,19.20
2022-11-14T04:00:51.444Z,18.50
2022-11-14T04:01:12.589Z,19.00
2022-11-14T04:01:33.660Z,19.50
2022-11-14T04:01:54.756Z,19.80
2022-11-14T04:02:15.810Z,19.50
2022-11-14T04:02:36.892Z,19.60
2022-11-14T04:02:57.952Z,19.10
2022-11-14T04:03:19.011Z,18.90
2022-11-14T04:03:40.093Z,19.30
2022-11-14T04:04:01.110Z,20.60
2022-11-14T04:04:22.170Z,19.80
2022-11-14T04:04:43.231Z,18.20
2022-11-14T04:05:04.266Z,17.30
2022-11-14T04:05:25.327Z,19.40
2022-11-14T04:05:46.387Z,18.60
2022-11-14T04:06:07.427Z,21.00
2022-11-14T04:06:28.494Z,19.10
2022-11-14T04:06:49.605Z,18.10
2022-11-14T04:07:10.924Z,19.30
2022-11-14T04:07:31.997Z,20.30
2022-11-14T04:07:53.008Z,18.90
2022-11-14T04:08:14.067Z,18.20
2022-11-14T04:08:35.127Z,19.10
2022-11-14T04:08:56.184Z,18.50
2022-11-14T04:09:17.220Z,17.70
2022-11-14T04:09:38.300Z,18.20
2022-11-14T04:09:59.351Z,20.60
2022-11-14T04:10:20.411Z,20.40
2022-11-14T04:10:41.505Z,19.40
2022-11-14T04:11:02.533Z,18.70
2022-11-14T04:11:23.595Z,19.20
2022-11-14T04:11:44.641Z,19.70
2022-11-14T04:12:05.699Z,19.50
2022-11-14T04:12:26.923Z,19.50
2022-11-14T04:12:47.944Z,19.30
2022-11-14T04:13:08.988Z,17.70
2022-11-14T04:13:30.148Z,19.10
2022-11-14T04:13:51.147Z,17.90
2022-11-14T04:14:12.190Z,17.60
2022-11-14T04:14:33.263Z,17.80
2022-11-14T04:14:54.326Z,17.70
2022-11-14T04:15:15.494Z,17.40
2022-11-14T04:15:36.532Z,17.90
2022-11-14T04:15:57.604Z,17.10
2022-11-14T04:16:18.677Z,17.90
2022-11-14T04:16:39.743Z,18.10
2022-11-14T04:17:00.787Z,18.70
2022-11-14T04:17:21.816Z,19.20
2022-11-14T04:17:42.873Z,17.60
2022-11-14T04:18:04.057Z,17.10
2022-11-14T04:18:25.130Z,17.50
2022-11-14T04:18:46.182Z,16.30
2022-11-14T04:19:07.328Z,16.10
2022-11-14T04:19:28.341Z,16.30
2022-11-14T04:19:49.417Z,16.80
2022-11-14T04:20:10.447Z,16.90
2022-11-14T04:20:31.561Z,17.90
2022-11-14T04:20:52.579Z,17.50
2022-11-14T04:21:13.630Z,18.00
2022-11-14T04:21:34.685Z,16.90
2022-11-14T04:21:55.736Z,17.40
2022-11-14T04:22:16.807Z,18.10
2022-11-14T04:22:37.848Z,18.40
2022-11-14T04:22:58.920Z,17.10
2022-11-14T04:23:19.996Z,17.70
2022-11-14T04:23:41.031Z,17.40
2022-11-14T04:24:03.913Z,18.80
2022-11-14T04:24:29.068Z,18.10
2022-11-14T04:24:50.163Z,17.10
2022-11-14T04:25:11.217Z,16.30
2022-11-14T04:25:32.260Z,18.10
2022-11-14T04:25:53.302Z,20.70
2022-11-14T04:26:14.373Z,19.70
2022-11-14T04:26:35.413Z,20.40
2022-11-14T04:26:56.482Z,21.00
2022-11-14T04:27:17.528Z,18.80
2022-11-14T04:27:38.747Z,17.50
2022-11-14T04:27:59.766Z,17.50
2022-11-14T04:28:20.844Z,19.10
2022-11-14T04:28:41.993Z,19.20
2022-11-14T04:29:02.987Z,19.30
2022-11-14T04:29:24.052Z,17.70
2022-11-14T04:29:45.111Z,19.30
2022-11-14T04:30:06.159Z,18.60
2022-11-14T04:30:30.857Z,17.40
2022-11-14T04:30:54.207Z,19.70
2022-11-14T04:31:15.280Z,19.40
2022-11-14T04:31:36.309Z,20.20
2022-11-14T04:31:57.354Z,18.20
2022-11-14T04:32:18.513Z,18.20